Time;durP1;ratioP1;P1;durP2;ratioP2;P2;SDS_P1;SDS_P2;PMS_P1;PMS_P2;Temp;Humidity;BMP_temperature;BMP_pressure;BME280_temperature;BME280_humidity;BME280_pressure;Samples;Min_cycle;Max_cycle;Signal;HPM_P1;HPM_P2
2023/01/27 00:09:41;;;;;;;0.95;0.50;;;;;;;16.10;65.20;102245.22;20180357;29;20056;-89
2023/01/27 00:19:43;;;;;;;0.65;0.55;;;;;;;16.11;65.24;102244.28;20199406;29;20048;-90
2023/01/27 00:29:45;;;;;;;1.20;0.50;;;;;;;16.11;65.13;102254.19;20200157;29;20069;-89
2023/01/27 00:39:46;;;;;;;0.73;0.40;;;;;;;16.11;65.20;102254.19;20185816;29;20061;-89
2023/01/27 00:49:48;;;;;;;0.95;0.45;;;;;;;16.09;65.21;102268.56;20179039;29;20061;-89
2023/01/27 00:59:49;;;;;;;0.73;0.40;;;;;;;16.10;65.07;102285.53;20211710;29;20075;-87
2023/01/27 01:09:51;;;;;;;0.80;0.40;;;;;;;15.96;65.14;102262.19;20187503;29;20057;-82
2023/01/27 01:19:53;;;;;;;0.65;0.40;;;;;;;16.12;65.22;102298.88;20184912;29;21451;-89
2023/01/27 01:29:55;;;;;;;0.50;0.40;;;;;;;16.10;65.33;102288.22;20187978;29;20057;-89
2023/01/27 01:39:56;;;;;;;0.40;0.30;;;;;;;16.11;65.32;102291.78;20163140;29;20044;-90
2023/01/27 01:49:58;;;;;;;0.95;0.50;;;;;;;16.11;65.13;102307.91;20186650;29;20057;-90
2023/01/27 02:00:03;;;;;;;0.60;0.40;;;;;;;16.11;65.23;102305.22;20189682;29;20053;-89
2023/01/27 02:10:14;;;;;;;0.75;0.70;;;;;;;16.09;65.24;102300.81;20158892;29;20049;-90
2023/01/27 02:20:24;;;;;;;0.60;0.45;;;;;;;16.09;65.27;102306.19;20173701;29;20076;-90
2023/01/27 02:30:26;;;;;;;0.55;0.30;;;;;;;15.88;65.01;102264.44;20169671;29;20051;-90
2023/01/27 02:40:29;;;;;;;0.45;0.20;;;;;;;16.11;65.14;102313.28;20177028;29;20127;-90
2023/01/27 02:50:31;;;;;;;0.50;0.30;;;;;;;16.11;65.33;102308.75;20186980;29;20052;-90
2023/01/27 03:00:33;;;;;;;0.85;0.40;;;;;;;16.03;65.12;102301.16;20194013;29;20053;-90
2023/01/27 03:10:34;;;;;;;0.43;0.38;;;;;;;15.87;65.10;102278.78;20175572;29;20057;-90
2023/01/27 03:20:36;;;;;;;0.20;0.20;;;;;;;16.11;65.10;102324.03;20189210;29;20423;-89
2023/01/27 03:30:38;;;;;;;0.60;0.60;;;;;;;16.11;65.01;102329.41;20190572;29;20044;-90
2023/01/27 03:51:26;;;;;;;0.25;0.20;;;;;;;16.12;64.83;102344.56;20190183;29;20076;-90
2023/01/27 04:01:28;;;;;;;0.73;0.50;;;;;;;16.11;64.75;102361.63;20180635;29;20053;-90
2023/01/27 04:21:50;;;;;;;0.28;0.28;;;;;;;15.75;64.95;102312.59;20187943;29;20113;-89
2023/01/27 04:31:52;;;;;;;0.88;0.52;;;;;;;16.11;64.59;102364.31;20185241;29;20557;-90
2023/01/27 04:41:55;;;;;;;0.20;0.20;;;;;;;16.05;64.48;102330.59;20192676;29;20172;-90
2023/01/27 04:51:56;;;;;;;0.45;0.30;;;;;;;16.11;64.51;102346.38;20206942;29;20056;-91
2023/01/27 05:01:58;;;;;;;0.65;0.30;;;;;;;16.11;64.51;102361.63;20208022;29;20579;-89
2023/01/27 05:11:59;;;;;;;0.47;0.30;;;;;;;16.11;64.76;102361.63;20162268;29;20053;-91
2023/01/27 05:22:01;;;;;;;0.30;0.30;;;;;;;16.11;64.69;102383.13;20175916;29;20053;-89
2023/01/27 05:32:03;;;;;;;0.22;0.22;;;;;;;16.11;64.78;102396.56;20171868;29;20097;-90
2023/01/27 05:42:04;;;;;;;0.35;0.35;;;;;;;16.11;64.39;102404.63;20190948;29;20061;-89
2023/01/27 05:52:06;;;;;;;0.55;0.30;;;;;;;16.11;64.60;102410.00;20190804;29;20603;-89
2023/01/27 06:02:08;;;;;;;0.25;0.25;;;;;;;15.74;64.64;102352.00;20176674;29;20080;-90
2023/01/27 06:12:09;;;;;;;0.30;0.30;;;;;;;16.09;64.75;102412.75;20177138;29;20056;-88
2023/01/27 06:22:11;;;;;;;0.32;0.20;;;;;;;16.03;64.35;102413.09;20207223;29;20128;-90
2023/01/27 06:32:12;;;;;;;0.65;0.20;;;;;;;16.09;64.51;102419.00;20193023;29;20511;-90
2023/01/27 06:42:14;;;;;;;0.40;0.20;;;;;;;15.76;64.40;102368.91;20218146;29;20511;-90
2023/01/27 06:52:15;;;;;;;0.47;0.30;;;;;;;16.09;64.61;102439.63;20171864;29;20084;-90
2023/01/27 07:02:17;;;;;;;0.20;0.20;;;;;;;16.09;64.53;102450.38;20185632;29;20500;-90
2023/01/27 07:12:18;;;;;;;0.17;0.17;;;;;;;16.09;64.77;102482.59;20204768;29;20743;-90
2023/01/27 07:22:20;;;;;;;0.20;0.20;;;;;;;16.08;64.56;102471.00;20176163;29;20057;-90
2023/01/27 07:32:22;;;;;;;0.10;0.10;;;;;;;16.08;64.51;102479.06;20171761;29;20543;-90
2023/01/27 07:42:23;;;;;;;0.43;0.20;;;;;;;15.90;64.45;102455.91;20204922;29;20060;-90
2023/01/27 07:52:25;;;;;;;0.25;0.20;;;;;;;16.04;64.65;102485.56;20178308;29;20048;-89
2023/01/27 08:02:27;;;;;;;0.25;0.20;;;;;;;16.05;64.45;102492.69;20170906;29;20060;-85
2023/01/27 08:12:29;;;;;;;0.25;0.15;;;;;;;16.09;64.71;102502.28;20166561;29;20147;-89
2023/01/27 08:22:30;;;;;;;0.20;0.20;;;;;;;15.95;64.46;102503.06;20176075;29;20047;-90
2023/01/27 08:32:33;;;;;;;0.10;0.10;;;;;;;16.08;64.63;102519.38;20146162;29;20083;-90
2023/01/27 08:42:34;;;;;;;1.55;0.22;;;;;;;15.61;64.40;102423.44;20157186;29;20065;-87
2023/01/27 08:52:36;;;;;;;3.03;0.40;;;;;;;16.32;63.42;102508.19;20161564;29;20054;-90
2023/01/27 09:02:37;;;;;;;0.35;0.25;;;;;;;14.47;62.96;102176.50;20677287;23;20080;-95
2023/01/27 09:12:43;;;;;;;0.63;0.30;;;;;;;16.73;62.58;102548.94;20965433;23;20069;-95
2023/01/27 09:22:44;;;;;;;;;;;;;;;16.80;62.63;102558.41;20426541;23;20048;-87
2023/01/27 09:32:46;;;;;;;1.17;0.20;;;;;;;16.78;62.68;102560.28;20200818;29;20022;-90
2023/01/27 09:43:06;;;;;;;0.60;0.30;;;;;;;16.67;62.57;102569.84;20210600;29;20068;-93
2023/01/27 09:53:29;;;;;;;1.17;0.20;;;;;;;16.57;62.45;102571.34;20229646;29;20053;-95
2023/01/27 10:03:42;;;;;;;1.23;0.17;;;;;;;16.49;62.82;102568.22;20231159;29;20057;-95
2023/01/27 10:13:59;;;;;;;0.75;0.57;;;;;;;16.43;62.93;102571.25;20222877;29;20053;-90
2023/01/27 10:24:22;;;;;;;0.75;0.20;;;;;;;16.34;62.98;102568.09;20147177;29;20060;-95
2023/01/27 10:34:33;;;;;;;0.40;0.28;;;;;;;16.34;63.22;102581.53;20133965;29;20057;-95
2023/01/27 10:44:53;;;;;;;0.20;0.20;;;;;;;16.32;63.20;102578.06;20142873;29;20065;-89
2023/01/27 10:55:13;;;;;;;0.60;0.30;;;;;;;16.30;63.56;102577.28;20133977;29;20128;-93
2023/01/27 11:05:19;;;;;;;0.20;0.20;;;;;;;16.28;63.37;102563.06;20122822;29;20052;-87
2023/01/27 11:15:32;;;;;;;0.40;0.20;;;;;;;16.00;63.42;102520.72;20108284;29;20128;-88
2023/01/27 11:25:51;;;;;;;0.30;0.20;;;;;;;16.27;63.40;102558.66;20123643;29;20064;-86
2023/01/27 11:35:53;;;;;;;0.10;0.10;;;;;;;16.13;63.35;102532.56;20122751;29;20456;-86
2023/01/27 11:46:00;;;;;;;0.60;0.43;;;;;;;15.78;63.73;102479.75;20120519;29;20495;-93
2023/01/27 11:56:06;;;;;;;0.20;0.20;;;;;;;16.27;63.59;102539.84;20127161;29;20193;-89
2023/01/27 12:06:15;;;;;;;0.30;0.20;;;;;;;16.27;63.56;102533.59;20117509;29;20135;-93
2023/01/27 12:16:17;;;;;;;0.55;0.20;;;;;;;16.26;63.57;102531.88;20132123;29;20053;-96
2023/01/27 12:26:37;;;;;;;0.38;0.20;;;;;;;16.16;63.49;102520.75;20133202;29;20068;-91
2023/01/27 12:36:41;;;;;;;0.52;0.20;;;;;;;15.97;63.74;102478.81;20116036;29;20464;-94
2023/01/27 12:46:59;;;;;;;0.28;0.28;;;;;;;16.26;63.70;102523.81;20127623;29;20059;-95
2023/01/27 12:57:03;;;;;;;0.35;0.20;;;;;;;16.25;63.82;102517.56;20221550;29;20061;-96
2023/01/27 13:07:07;;;;;;;0.20;0.10;;;;;;;16.24;63.96;102519.38;20161079;29;20063;-93
2023/01/27 13:17:33;;;;;;;0.68;0.20;;;;;;;16.24;63.83;102515.81;20125443;29;20060;-94
2023/01/27 13:27:38;;;;;;;0.30;0.13;;;;;;;16.18;63.64;102498.25;20131023;29;20089;-93
2023/01/27 13:37:44;;;;;;;0.45;0.20;;;;;;;16.24;63.85;102514.00;20159228;29;20052;-95
2023/01/27 13:47:56;;;;;;;0.28;0.10;;;;;;;16.26;64.03;102529.19;20110093;29;20063;-92
2023/01/27 13:58:08;;;;;;;0.15;0.10;;;;;;;16.24;63.94;102530.13;20139100;29;20052;-93
2023/01/27 14:08:37;;;;;;;1.05;0.20;;;;;;;16.25;64.00;102528.31;20142502;29;20105;-93
2023/01/27 14:18:42;;;;;;;1.95;0.30;;;;;;;15.82;64.72;102442.88;20123054;29;20136;-92
2023/01/27 14:29:27;;;;;;;0.43;0.22;;;;;;;16.36;64.73;102522.34;20125597;29;20085;-89
2023/01/27 14:39:37;;;;;;;0.55;0.17;;;;;;;16.15;64.71;102505.59;20119864;29;20057;-94
2023/01/27 14:49:59;;;;;;;0.17;0.10;;;;;;;16.32;64.65;102547.66;20147221;29;20538;-94
2023/01/27 15:00:04;;;;;;;0.75;0.13;;;;;;;16.30;64.53;102550.41;20149444;29;20109;-95
2023/01/27 15:10:20;;;;;;;0.40;0.20;;;;;;;16.28;64.36;102560.38;20171631;29;20057;-95
2023/01/27 15:20:40;;;;;;;0.15;0.10;;;;;;;16.29;64.37;102554.06;20156134;29;20508;-96
2023/01/27 15:31:08;;;;;;;0.20;0.20;;;;;;;16.32;64.20;102559.25;20128486;29;20065;-89
2023/01/27 15:41:11;;;;;;;0.93;0.30;;;;;;;16.34;64.20;102578.00;20131651;29;20053;-95
2023/01/27 15:51:18;;;;;;;2.85;0.40;;;;;;;16.22;64.27;102564.28;20148477;29;20587;-87
2023/01/27 16:01:26;;;;;;;0.85;0.32;;;;;;;16.18;64.07;102553.78;20126501;29;21414;-87
2023/01/27 16:11:28;;;;;;;1.85;0.20;;;;;;;16.34;64.23;102569.94;20116428;29;20064;-88
2023/01/27 16:21:36;;;;;;;0.10;0.10;;;;;;;16.31;64.37;102576.31;20122401;29;20055;-86
2023/01/27 16:31:39;;;;;;;0.45;0.10;;;;;;;16.22;64.42;102575.03;20127419;29;20056;-88
2023/01/27 16:41:51;;;;;;;1.23;0.13;;;;;;;16.26;64.38;102591.00;20121902;29;20124;-85
2023/01/27 16:51:58;;;;;;;0.30;0.20;;;;;;;15.57;64.26;102481.78;20142608;29;20052;-89
2023/01/27 17:02:13;;;;;;;0.30;0.20;;;;;;;16.12;64.62;102579.16;20121006;29;20376;-92
2023/01/27 17:12:27;;;;;;;1.43;0.20;;;;;;;16.27;64.49;102616.91;20141556;29;20121;-95
2023/01/27 17:22:40;;;;;;;0.75;0.20;;;;;;;16.27;64.77;102625.84;20161773;29;20462;-92
2023/01/27 17:32:45;;;;;;;1.25;0.30;;;;;;;16.12;65.02;102606.03;20152868;29;20389;-88
2023/01/27 17:42:47;;;;;;;0.50;0.20;;;;;;;16.27;64.94;102641.09;20069453;29;20108;-93
2023/01/27 17:52:50;;;;;;;0.10;0.10;;;;;;;15.96;65.20;102595.25;20094444;29;20060;-91
2023/01/27 18:02:58;;;;;;;1.13;0.20;;;;;;;16.27;65.20;102658.06;20106564;29;20057;-87
2023/01/27 18:13:12;;;;;;;0.15;0.15;;;;;;;16.26;65.27;102672.47;20116633;29;20102;-89
2023/01/27 18:23:16;;;;;;;0.30;0.20;;;;;;;16.26;65.48;102663.56;20101878;29;20053;-88
2023/01/27 18:33:18;;;;;;;0.85;0.30;;;;;;;16.03;65.31;102634.28;20089661;29;20136;-94
2023/01/27 18:43:19;;;;;;;0.20;0.20;;;;;;;16.26;65.48;102677.00;20110920;29;20057;-93
2023/01/27 18:53:21;;;;;;;0.20;0.20;;;;;;;16.26;65.69;102682.38;20115594;29;20535;-91
2023/01/27 19:03:27;;;;;;;0.60;0.20;;;;;;;16.04;65.74;102652.13;20127622;29;20041;-91
2023/01/27 19:13:28;;;;;;;1.70;0.20;;;;;;;16.27;65.79;102689.47;20170501;29;20526;-95
2023/01/27 19:23:31;;;;;;;0.40;0.28;;;;;;;16.27;65.86;102684.97;20168852;29;20527;-90
2023/01/27 19:33:35;;;;;;;0.40;0.30;;;;;;;16.26;65.92;102693.97;20153112;29;20151;-90
2023/01/27 19:43:37;;;;;;;2.38;0.30;;;;;;;16.04;65.76;102657.50;20166330;29;20077;-90
2023/01/27 19:53:38;;;;;;;0.35;0.10;;;;;;;16.18;65.84;102672.00;20165394;29;20049;-89
2023/01/27 20:03:40;;;;;;;0.70;0.52;;;;;;;16.10;65.91;102661.66;20164173;29;20056;-90
2023/01/27 20:13:41;;;;;;;0.65;0.50;;;;;;;16.23;65.82;102680.69;20164339;29;20071;-89
2023/01/27 20:23:43;;;;;;;0.57;0.30;;;;;;;16.12;65.94;102675.88;20147215;29;20575;-89
2023/01/27 20:33:48;;;;;;;1.02;0.30;;;;;;;16.22;65.72;102695.09;20162260;29;20124;-89
2023/01/27 20:43:55;;;;;;;0.30;0.30;;;;;;;16.22;65.80;102685.22;20130905;29;20056;-89
2023/01/27 20:53:58;;;;;;;0.20;0.20;;;;;;;16.22;65.87;102687.03;20150849;29;20596;-89
2023/01/27 21:04:00;;;;;;;0.20;0.20;;;;;;;16.21;65.76;102687.97;20145327;29;20048;-90
2023/01/27 21:14:02;;;;;;;0.50;0.17;;;;;;;16.03;65.82;102649.50;20162282;29;20049;-90
2023/01/27 21:24:05;;;;;;;0.20;0.20;;;;;;;16.21;65.73;102674.53;20155999;29;20076;-90
2023/01/27 21:34:09;;;;;;;0.30;0.20;;;;;;;16.21;65.56;102669.16;20138346;29;20554;-90
2023/01/27 21:54:39;;;;;;;0.85;0.20;;;;;;;16.21;65.77;102674.53;20153892;29;20041;-90
2023/01/27 22:04:44;;;;;;;0.47;0.25;;;;;;;16.03;65.58;102645.03;20155600;29;20049;-90
2023/01/27 22:14:46;;;;;;;0.28;0.28;;;;;;;16.20;65.59;102664.75;20141180;29;20049;-90
2023/01/27 22:24:47;;;;;;;0.20;0.20;;;;;;;16.19;65.67;102666.56;20153354;29;20056;-91
2023/01/27 22:34:49;;;;;;;0.10;0.10;;;;;;;16.18;65.33;102659.47;20159809;29;20056;-90
2023/01/27 22:44:51;;;;;;;0.30;0.20;;;;;;;16.19;65.83;102646.88;20145661;29;20057;-90
2023/01/27 22:54:52;;;;;;;0.30;0.20;;;;;;;16.18;65.58;102642.47;20151998;29;20061;-89
2023/01/27 23:04:55;;;;;;;0.38;0.30;;;;;;;16.18;65.48;102650.53;20159109;29;20112;-90
2023/01/27 23:14:59;;;;;;;0.30;0.30;;;;;;;16.17;65.39;102638.03;20148456;29;20049;-89
2023/01/27 23:25:00;;;;;;;0.40;0.30;;;;;;;16.17;65.17;102656.84;20177423;29;20052;-89
2023/01/27 23:35:03;;;;;;;0.30;0.28;;;;;;;16.15;65.44;102658.75;20166794;29;20049;-89
2023/01/27 23:45:05;;;;;;;0.20;0.20;;;;;;;16.17;65.24;102662.22;20151340;29;20092;-90
2023/01/27 23:55:07;;;;;;;1.40;0.30;;;;;;;15.97;65.19;102631.91;20159204;29;20056;-91
